sensor_id;sensor_type;location;lat;lon;timestamp;P1;durP1;ratioP1;P2;durP2;ratioP2
6163;SDS011;3114;48.362;10.994;2022-08-18T00:01:56;5.03;;;4.53;;
6163;SDS011;3114;48.362;10.994;2022-08-18T00:04:27;5.63;;;4.60;;
6163;SDS011;3114;48.362;10.994;2022-08-18T00:06:54;7.90;;;4.80;;
6163;SDS011;3114;48.362;10.994;2022-08-18T00:09:22;8.43;;;5.40;;
6163;SDS011;3114;48.362;10.994;2022-08-18T00:11:51;7.28;;;5.05;;
6163;SDS011;3114;48.362;10.994;2022-08-18T00:14:20;5.55;;;4.95;;
6163;SDS011;3114;48.362;10.994;2022-08-18T00:16:48;7.55;;;4.82;;
6163;SDS011;3114;48.362;10.994;2022-08-18T00:19:16;7.20;;;4.82;;
6163;SDS011;3114;48.362;10.994;2022-08-18T00:21:43;5.57;;;5.03;;
6163;SDS011;3114;48.362;10.994;2022-08-18T00:24:10;7.32;;;4.90;;
6163;SDS011;3114;48.362;10.994;2022-08-18T00:26:38;5.30;;;4.65;;
6163;SDS011;3114;48.362;10.994;2022-08-18T00:29:17;7.60;;;4.95;;
6163;SDS011;3114;48.362;10.994;2022-08-18T00:31:43;5.80;;;5.20;;
6163;SDS011;3114;48.362;10.994;2022-08-18T00:34:10;6.35;;;5.05;;
6163;SDS011;3114;48.362;10.994;2022-08-18T00:36:37;6.25;;;4.90;;
6163;SDS011;3114;48.362;10.994;2022-08-18T00:39:05;5.70;;;5.00;;
6163;SDS011;3114;48.362;10.994;2022-08-18T00:41:32;6.65;;;5.28;;
6163;SDS011;3114;48.362;10.994;2022-08-18T00:44:00;6.47;;;5.25;;
6163;SDS011;3114;48.362;10.994;2022-08-18T00:46:29;6.57;;;5.47;;
6163;SDS011;3114;48.362;10.994;2022-08-18T00:49:03;6.28;;;5.10;;
6163;SDS011;3114;48.362;10.994;2022-08-18T00:51:32;5.90;;;5.10;;
6163;SDS011;3114;48.362;10.994;2022-08-18T00:54:04;8.55;;;5.55;;
6163;SDS011;3114;48.362;10.994;2022-08-18T00:56:36;5.82;;;5.28;;
6163;SDS011;3114;48.362;10.994;2022-08-18T00:59:10;7.43;;;5.47;;
6163;SDS011;3114;48.362;10.994;2022-08-18T01:01:41;7.20;;;5.53;;
6163;SDS011;3114;48.362;10.994;2022-08-18T01:04:12;6.07;;;5.30;;
6163;SDS011;3114;48.362;10.994;2022-08-18T01:06:44;6.95;;;4.82;;
6163;SDS011;3114;48.362;10.994;2022-08-18T01:09:16;5.60;;;5.10;;
6163;SDS011;3114;48.362;10.994;2022-08-18T01:11:44;5.80;;;5.30;;
6163;SDS011;3114;48.362;10.994;2022-08-18T01:14:12;5.60;;;4.80;;
6163;SDS011;3114;48.362;10.994;2022-08-18T01:16:42;5.35;;;4.85;;
6163;SDS011;3114;48.362;10.994;2022-08-18T01:19:27;5.88;;;4.70;;
6163;SDS011;3114;48.362;10.994;2022-08-18T01:22:14;7.65;;;4.85;;
6163;SDS011;3114;48.362;10.994;2022-08-18T01:24:48;6.57;;;5.20;;
6163;SDS011;3114;48.362;10.994;2022-08-18T01:27:32;5.20;;;4.43;;
6163;SDS011;3114;48.362;10.994;2022-08-18T01:30:02;5.95;;;4.95;;
6163;SDS011;3114;48.362;10.994;2022-08-18T01:32:31;5.45;;;4.95;;
6163;SDS011;3114;48.362;10.994;2022-08-18T01:34:58;6.30;;;4.72;;
6163;SDS011;3114;48.362;10.994;2022-08-18T01:37:25;5.55;;;4.70;;
6163;SDS011;3114;48.362;10.994;2022-08-18T01:39:58;5.05;;;4.50;;
6163;SDS011;3114;48.362;10.994;2022-08-18T01:42:29;5.80;;;4.50;;
6163;SDS011;3114;48.362;10.994;2022-08-18T01:44:56;7.22;;;5.13;;
6163;SDS011;3114;48.362;10.994;2022-08-18T01:47:23;5.07;;;4.68;;
6163;SDS011;3114;48.362;10.994;2022-08-18T01:49:50;5.00;;;4.53;;
6163;SDS011;3114;48.362;10.994;2022-08-18T01:52:18;6.97;;;4.47;;
6163;SDS011;3114;48.362;10.994;2022-08-18T01:54:48;5.10;;;4.60;;
6163;SDS011;3114;48.362;10.994;2022-08-18T01:57:18;7.45;;;4.90;;
6163;SDS011;3114;48.362;10.994;2022-08-18T01:59:45;4.70;;;4.30;;
6163;SDS011;3114;48.362;10.994;2022-08-18T02:02:13;4.78;;;4.25;;
6163;SDS011;3114;48.362;10.994;2022-08-18T02:04:43;5.00;;;4.25;;
6163;SDS011;3114;48.362;10.994;2022-08-18T02:07:12;5.40;;;4.80;;
6163;SDS011;3114;48.362;10.994;2022-08-18T02:09:40;5.00;;;4.60;;
6163;SDS011;3114;48.362;10.994;2022-08-18T02:12:10;5.38;;;4.88;;
6163;SDS011;3114;48.362;10.994;2022-08-18T02:14:39;5.53;;;4.88;;
6163;SDS011;3114;48.362;10.994;2022-08-18T02:17:08;5.75;;;5.20;;
6163;SDS011;3114;48.362;10.994;2022-08-18T02:19:40;6.30;;;4.97;;
6163;SDS011;3114;48.362;10.994;2022-08-18T02:22:10;6.00;;;5.10;;
6163;SDS011;3114;48.362;10.994;2022-08-18T02:24:38;5.05;;;4.55;;
6163;SDS011;3114;48.362;10.994;2022-08-18T02:27:07;4.95;;;4.55;;
6163;SDS011;3114;48.362;10.994;2022-08-18T02:29:39;5.38;;;4.80;;
6163;SDS011;3114;48.362;10.994;2022-08-18T02:32:08;5.28;;;4.78;;
6163;SDS011;3114;48.362;10.994;2022-08-18T02:34:51;5.47;;;4.97;;
6163;SDS011;3114;48.362;10.994;2022-08-18T02:37:18;5.15;;;4.68;;
6163;SDS011;3114;48.362;10.994;2022-08-18T02:39:45;5.63;;;5.03;;
6163;SDS011;3114;48.362;10.994;2022-08-18T02:42:14;5.28;;;4.78;;
6163;SDS011;3114;48.362;10.994;2022-08-18T02:44:43;6.30;;;5.10;;
6163;SDS011;3114;48.362;10.994;2022-08-18T02:47:10;5.63;;;5.10;;
6163;SDS011;3114;48.362;10.994;2022-08-18T02:49:37;5.47;;;4.90;;
6163;SDS011;3114;48.362;10.994;2022-08-18T02:52:04;5.45;;;4.75;;
6163;SDS011;3114;48.362;10.994;2022-08-18T02:54:32;6.40;;;5.40;;
6163;SDS011;3114;48.362;10.994;2022-08-18T02:57:04;5.28;;;4.78;;
6163;SDS011;3114;48.362;10.994;2022-08-18T02:59:35;6.00;;;5.32;;
6163;SDS011;3114;48.362;10.994;2022-08-18T03:02:05;6.40;;;5.32;;
6163;SDS011;3114;48.362;10.994;2022-08-18T03:04:33;6.07;;;5.50;;
6163;SDS011;3114;48.362;10.994;2022-08-18T03:07:01;7.32;;;4.85;;
6163;SDS011;3114;48.362;10.994;2022-08-18T03:09:30;7.78;;;5.05;;
6163;SDS011;3114;48.362;10.994;2022-08-18T03:11:58;7.00;;;5.22;;
6163;SDS011;3114;48.362;10.994;2022-08-18T03:14:26;6.10;;;5.50;;
6163;SDS011;3114;48.362;10.994;2022-08-18T03:16:53;6.90;;;4.97;;
6163;SDS011;3114;48.362;10.994;2022-08-18T03:19:22;6.38;;;5.15;;
6163;SDS011;3114;48.362;10.994;2022-08-18T03:21:49;7.97;;;5.80;;
6163;SDS011;3114;48.362;10.994;2022-08-18T03:24:17;6.45;;;5.85;;
6163;SDS011;3114;48.362;10.994;2022-08-18T03:26:44;6.90;;;5.88;;
6163;SDS011;3114;48.362;10.994;2022-08-18T03:29:11;5.88;;;5.35;;
6163;SDS011;3114;48.362;10.994;2022-08-18T03:31:40;7.03;;;5.88;;
6163;SDS011;3114;48.362;10.994;2022-08-18T03:34:10;5.68;;;5.18;;
6163;SDS011;3114;48.362;10.994;2022-08-18T03:36:39;6.13;;;5.00;;
6163;SDS011;3114;48.362;10.994;2022-08-18T03:39:10;8.43;;;5.22;;
6163;SDS011;3114;48.362;10.994;2022-08-18T03:41:39;7.07;;;5.47;;
6163;SDS011;3114;48.362;10.994;2022-08-18T03:44:07;5.20;;;4.70;;
6163;SDS011;3114;48.362;10.994;2022-08-18T03:46:34;5.53;;;5.03;;
6163;SDS011;3114;48.362;10.994;2022-08-18T03:49:07;5.68;;;5.05;;
6163;SDS011;3114;48.362;10.994;2022-08-18T03:51:34;5.63;;;5.10;;
6163;SDS011;3114;48.362;10.994;2022-08-18T03:54:03;5.93;;;5.35;;
6163;SDS011;3114;48.362;10.994;2022-08-18T03:56:32;5.53;;;5.03;;
6163;SDS011;3114;48.362;10.994;2022-08-18T04:01:41;7.05;;;5.80;;
6163;SDS011;3114;48.362;10.994;2022-08-18T04:04:09;8.23;;;6.07;;
6163;SDS011;3114;48.362;10.994;2022-08-18T04:06:39;6.00;;;5.40;;
6163;SDS011;3114;48.362;10.994;2022-08-18T04:09:10;6.63;;;5.75;;
6163;SDS011;3114;48.362;10.994;2022-08-18T04:11:39;6.32;;;5.72;;
6163;SDS011;3114;48.362;10.994;2022-08-18T04:14:09;6.95;;;6.25;;
6163;SDS011;3114;48.362;10.994;2022-08-18T04:16:37;7.35;;;5.88;;
6163;SDS011;3114;48.362;10.994;2022-08-18T04:19:05;7.45;;;6.70;;
6163;SDS011;3114;48.362;10.994;2022-08-18T04:21:33;9.13;;;6.78;;
6163;SDS011;3114;48.362;10.994;2022-08-18T04:24:06;7.32;;;6.43;;
6163;SDS011;3114;48.362;10.994;2022-08-18T04:26:36;9.82;;;6.68;;
6163;SDS011;3114;48.362;10.994;2022-08-18T04:29:06;7.25;;;6.55;;
6163;SDS011;3114;48.362;10.994;2022-08-18T04:31:34;7.10;;;6.13;;
6163;SDS011;3114;48.362;10.994;2022-08-18T04:34:01;7.80;;;6.65;;
6163;SDS011;3114;48.362;10.994;2022-08-18T04:36:29;8.02;;;6.47;;
6163;SDS011;3114;48.362;10.994;2022-08-18T04:38:58;7.32;;;6.60;;
6163;SDS011;3114;48.362;10.994;2022-08-18T04:41:25;7.72;;;6.78;;
6163;SDS011;3114;48.362;10.994;2022-08-18T04:43:54;6.72;;;6.07;;
6163;SDS011;3114;48.362;10.994;2022-08-18T04:46:21;7.10;;;6.50;;
6163;SDS011;3114;48.362;10.994;2022-08-18T04:48:48;7.35;;;6.65;;
6163;SDS011;3114;48.362;10.994;2022-08-18T04:51:16;6.53;;;5.93;;
6163;SDS011;3114;48.362;10.994;2022-08-18T04:53:45;7.03;;;6.22;;
6163;SDS011;3114;48.362;10.994;2022-08-18T04:56:15;7.95;;;6.55;;
6163;SDS011;3114;48.362;10.994;2022-08-18T04:58:50;7.50;;;6.70;;
6163;SDS011;3114;48.362;10.994;2022-08-18T05:01:20;6.80;;;6.20;;
6163;SDS011;3114;48.362;10.994;2022-08-18T05:03:47;7.32;;;6.32;;
6163;SDS011;3114;48.362;10.994;2022-08-18T05:06:15;6.95;;;6.25;;
6163;SDS011;3114;48.362;10.994;2022-08-18T05:08:43;7.95;;;6.97;;
6163;SDS011;3114;48.362;10.994;2022-08-18T05:11:11;7.43;;;6.72;;
6163;SDS011;3114;48.362;10.994;2022-08-18T05:13:38;7.90;;;6.22;;
6163;SDS011;3114;48.362;10.994;2022-08-18T05:16:05;6.40;;;5.80;;
6163;SDS011;3114;48.362;10.994;2022-08-18T05:18:34;7.00;;;6.32;;
6163;SDS011;3114;48.362;10.994;2022-08-18T05:21:03;7.65;;;6.57;;
6163;SDS011;3114;48.362;10.994;2022-08-18T05:23:30;9.10;;;6.60;;
6163;SDS011;3114;48.362;10.994;2022-08-18T05:25:57;6.60;;;6.00;;
6163;SDS011;3114;48.362;10.994;2022-08-18T05:28:26;6.70;;;6.10;;
6163;SDS011;3114;48.362;10.994;2022-08-18T05:30:53;7.15;;;6.20;;
6163;SDS011;3114;48.362;10.994;2022-08-18T05:33:20;7.43;;;6.55;;
6163;SDS011;3114;48.362;10.994;2022-08-18T05:35:49;6.72;;;5.70;;
6163;SDS011;3114;48.362;10.994;2022-08-18T05:38:25;6.90;;;6.10;;
6163;SDS011;3114;48.362;10.994;2022-08-18T05:41:05;7.20;;;6.50;;
6163;SDS011;3114;48.362;10.994;2022-08-18T05:43:34;7.55;;;6.00;;
6163;SDS011;3114;48.362;10.994;2022-08-18T05:46:02;7.07;;;6.35;;
6163;SDS011;3114;48.362;10.994;2022-08-18T05:48:31;7.65;;;6.47;;
6163;SDS011;3114;48.362;10.994;2022-08-18T05:51:02;8.07;;;6.13;;
6163;SDS011;3114;48.362;10.994;2022-08-18T05:53:41;6.20;;;5.55;;
6163;SDS011;3114;48.362;10.994;2022-08-18T05:56:33;7.05;;;5.85;;
6163;SDS011;3114;48.362;10.994;2022-08-18T05:59:11;7.18;;;6.05;;
6163;SDS011;3114;48.362;10.994;2022-08-18T06:01:47;6.78;;;6.00;;
6163;SDS011;3114;48.362;10.994;2022-08-18T06:04:25;7.85;;;6.75;;
6163;SDS011;3114;48.362;10.994;2022-08-18T06:07:04;7.78;;;6.40;;
6163;SDS011;3114;48.362;10.994;2022-08-18T06:09:36;7.50;;;6.40;;
6163;SDS011;3114;48.362;10.994;2022-08-18T06:12:11;6.43;;;5.80;;
6163;SDS011;3114;48.362;10.994;2022-08-18T06:14:40;8.07;;;5.50;;
6163;SDS011;3114;48.362;10.994;2022-08-18T06:17:11;6.30;;;5.38;;
6163;SDS011;3114;48.362;10.994;2022-08-18T06:19:51;6.30;;;5.70;;
6163;SDS011;3114;48.362;10.994;2022-08-18T06:22:29;6.18;;;5.57;;
6163;SDS011;3114;48.362;10.994;2022-08-18T06:25:09;6.63;;;5.70;;
6163;SDS011;3114;48.362;10.994;2022-08-18T06:27:44;7.45;;;5.55;;
6163;SDS011;3114;48.362;10.994;2022-08-18T06:30:21;5.57;;;5.07;;
6163;SDS011;3114;48.362;10.994;2022-08-18T06:33:01;6.57;;;5.45;;
6163;SDS011;3114;48.362;10.994;2022-08-18T06:35:37;7.35;;;6.05;;
6163;SDS011;3114;48.362;10.994;2022-08-18T06:38:17;8.43;;;5.88;;
6163;SDS011;3114;48.362;10.994;2022-08-18T06:41:14;6.22;;;5.63;;
6163;SDS011;3114;48.362;10.994;2022-08-18T06:43:47;6.35;;;5.65;;
6163;SDS011;3114;48.362;10.994;2022-08-18T06:46:28;8.13;;;5.63;;
6163;SDS011;3114;48.362;10.994;2022-08-18T06:49:07;7.03;;;5.47;;
6163;SDS011;3114;48.362;10.994;2022-08-18T06:51:36;6.22;;;5.50;;
6163;SDS011;3114;48.362;10.994;2022-08-18T06:54:06;6.30;;;5.43;;
6163;SDS011;3114;48.362;10.994;2022-08-18T06:56:51;7.15;;;5.68;;
6163;SDS011;3114;48.362;10.994;2022-08-18T06:59:21;7.15;;;5.40;;
6163;SDS011;3114;48.362;10.994;2022-08-18T07:01:51;6.07;;;5.47;;
6163;SDS011;3114;48.362;10.994;2022-08-18T07:07:20;5.90;;;5.32;;
6163;SDS011;3114;48.362;10.994;2022-08-18T07:09:58;6.57;;;5.50;;
6163;SDS011;3114;48.362;10.994;2022-08-18T07:12:26;6.40;;;5.80;;
6163;SDS011;3114;48.362;10.994;2022-08-18T07:14:55;7.78;;;5.72;;
6163;SDS011;3114;48.362;10.994;2022-08-18T07:17:25;8.45;;;5.60;;
6163;SDS011;3114;48.362;10.994;2022-08-18T07:20:01;7.22;;;5.90;;
6163;SDS011;3114;48.362;10.994;2022-08-18T07:22:36;6.55;;;5.65;;
6163;SDS011;3114;48.362;10.994;2022-08-18T07:25:23;6.15;;;5.40;;
6163;SDS011;3114;48.362;10.994;2022-08-18T07:27:53;7.60;;;6.00;;
6163;SDS011;3114;48.362;10.994;2022-08-18T07:30:28;6.90;;;5.72;;
6163;SDS011;3114;48.362;10.994;2022-08-18T07:32:59;6.75;;;5.95;;
6163;SDS011;3114;48.362;10.994;2022-08-18T07:35:35;7.57;;;6.82;;
6163;SDS011;3114;48.362;10.994;2022-08-18T07:38:12;7.53;;;6.80;;
6163;SDS011;3114;48.362;10.994;2022-08-18T07:40:45;7.70;;;6.85;;
6163;SDS011;3114;48.362;10.994;2022-08-18T07:43:19;9.15;;;7.40;;
6163;SDS011;3114;48.362;10.994;2022-08-18T07:45:53;8.65;;;7.43;;
6163;SDS011;3114;48.362;10.994;2022-08-18T07:48:30;9.15;;;7.93;;
6163;SDS011;3114;48.362;10.994;2022-08-18T07:50:59;9.15;;;7.80;;
6163;SDS011;3114;48.362;10.994;2022-08-18T07:53:30;10.10;;;7.93;;
6163;SDS011;3114;48.362;10.994;2022-08-18T07:56:04;10.05;;;7.60;;
6163;SDS011;3114;48.362;10.994;2022-08-18T07:58:46;9.70;;;8.23;;
6163;SDS011;3114;48.362;10.994;2022-08-18T08:01:25;9.00;;;7.70;;
6163;SDS011;3114;48.362;10.994;2022-08-18T08:04:02;9.07;;;7.55;;
6163;SDS011;3114;48.362;10.994;2022-08-18T08:06:38;9.55;;;7.95;;
6163;SDS011;3114;48.362;10.994;2022-08-18T08:09:16;9.63;;;8.32;;
6163;SDS011;3114;48.362;10.994;2022-08-18T08:11:53;8.65;;;7.55;;
6163;SDS011;3114;48.362;10.994;2022-08-18T08:14:26;9.07;;;8.10;;
6163;SDS011;3114;48.362;10.994;2022-08-18T08:17:06;9.05;;;8.05;;
6163;SDS011;3114;48.362;10.994;2022-08-18T08:20:03;9.48;;;8.50;;
6163;SDS011;3114;48.362;10.994;2022-08-18T08:22:52;9.38;;;8.43;;
6163;SDS011;3114;48.362;10.994;2022-08-18T08:25:30;9.82;;;8.13;;
6163;SDS011;3114;48.362;10.994;2022-08-18T08:28:10;12.05;;;8.40;;
6163;SDS011;3114;48.362;10.994;2022-08-18T08:30:51;9.85;;;8.80;;
6163;SDS011;3114;48.362;10.994;2022-08-18T08:33:30;9.60;;;8.30;;
6163;SDS011;3114;48.362;10.994;2022-08-18T08:36:02;9.30;;;8.40;;
6163;SDS011;3114;48.362;10.994;2022-08-18T08:38:37;12.88;;;9.20;;
6163;SDS011;3114;48.362;10.994;2022-08-18T08:41:10;9.85;;;8.65;;
6163;SDS011;3114;48.362;10.994;2022-08-18T08:43:46;9.48;;;8.48;;
6163;SDS011;3114;48.362;10.994;2022-08-18T08:46:28;13.07;;;9.10;;
6163;SDS011;3114;48.362;10.994;2022-08-18T08:49:02;8.88;;;8.05;;
6163;SDS011;3114;48.362;10.994;2022-08-18T08:51:37;10.60;;;8.77;;
6163;SDS011;3114;48.362;10.994;2022-08-18T08:54:09;9.90;;;8.90;;
6163;SDS011;3114;48.362;10.994;2022-08-18T08:56:45;10.50;;;9.15;;
6163;SDS011;3114;48.362;10.994;2022-08-18T08:59:17;9.65;;;8.52;;
6163;SDS011;3114;48.362;10.994;2022-08-18T09:01:48;11.52;;;8.88;;
6163;SDS011;3114;48.362;10.994;2022-08-18T09:04:29;10.23;;;8.10;;
6163;SDS011;3114;48.362;10.994;2022-08-18T09:07:11;11.25;;;9.25;;
6163;SDS011;3114;48.362;10.994;2022-08-18T09:10:06;9.82;;;8.60;;
6163;SDS011;3114;48.362;10.994;2022-08-18T09:12:53;8.75;;;7.85;;
6163;SDS011;3114;48.362;10.994;2022-08-18T09:15:41;8.40;;;7.68;;
6163;SDS011;3114;48.362;10.994;2022-08-18T09:21:00;9.40;;;8.38;;
6163;SDS011;3114;48.362;10.994;2022-08-18T09:23:40;9.50;;;8.60;;
6163;SDS011;3114;48.362;10.994;2022-08-18T09:26:23;9.05;;;8.10;;
6163;SDS011;3114;48.362;10.994;2022-08-18T09:28:54;8.75;;;7.28;;
6163;SDS011;3114;48.362;10.994;2022-08-18T09:31:24;9.77;;;7.57;;
6163;SDS011;3114;48.362;10.994;2022-08-18T09:33:56;9.60;;;7.78;;
6163;SDS011;3114;48.362;10.994;2022-08-18T09:36:52;9.75;;;8.32;;
6163;SDS011;3114;48.362;10.994;2022-08-18T09:39:28;8.60;;;7.68;;
6163;SDS011;3114;48.362;10.994;2022-08-18T09:42:17;8.80;;;7.88;;
6163;SDS011;3114;48.362;10.994;2022-08-18T09:44:58;10.50;;;7.68;;
6163;SDS011;3114;48.362;10.994;2022-08-18T09:47:56;8.32;;;7.53;;
6163;SDS011;3114;48.362;10.994;2022-08-18T09:50:59;9.18;;;7.82;;
6163;SDS011;3114;48.362;10.994;2022-08-18T09:56:57;9.13;;;7.22;;
6163;SDS011;3114;48.362;10.994;2022-08-18T09:59:56;8.98;;;8.07;;
6163;SDS011;3114;48.362;10.994;2022-08-18T10:05:59;9.07;;;8.13;;
6163;SDS011;3114;48.362;10.994;2022-08-18T10:11:30;9.75;;;8.63;;
6163;SDS011;3114;48.362;10.994;2022-08-18T10:14:22;9.60;;;8.60;;
6163;SDS011;3114;48.362;10.994;2022-08-18T10:17:09;8.70;;;7.78;;
6163;SDS011;3114;48.362;10.994;2022-08-18T10:20:11;11.55;;;8.40;;
6163;SDS011;3114;48.362;10.994;2022-08-18T10:22:43;9.55;;;7.95;;
6163;SDS011;3114;48.362;10.994;2022-08-18T10:25:12;10.45;;;8.18;;
6163;SDS011;3114;48.362;10.994;2022-08-18T10:27:54;9.38;;;8.48;;
6163;SDS011;3114;48.362;10.994;2022-08-18T10:33:12;9.38;;;8.48;;
6163;SDS011;3114;48.362;10.994;2022-08-18T10:36:32;10.60;;;9.52;;
6163;SDS011;3114;48.362;10.994;2022-08-18T10:39:09;9.63;;;8.50;;
6163;SDS011;3114;48.362;10.994;2022-08-18T10:41:48;10.55;;;8.93;;
6163;SDS011;3114;48.362;10.994;2022-08-18T10:44:29;8.68;;;7.68;;
6163;SDS011;3114;48.362;10.994;2022-08-18T10:46:59;10.52;;;8.57;;
6163;SDS011;3114;48.362;10.994;2022-08-18T10:49:28;10.00;;;8.50;;
6163;SDS011;3114;48.362;10.994;2022-08-18T10:52:09;11.57;;;10.30;;
6163;SDS011;3114;48.362;10.994;2022-08-18T10:55:09;9.77;;;8.45;;
6163;SDS011;3114;48.362;10.994;2022-08-18T11:00:59;10.02;;;7.97;;
6163;SDS011;3114;48.362;10.994;2022-08-18T11:03:38;10.00;;;8.48;;
6163;SDS011;3114;48.362;10.994;2022-08-18T11:06:15;13.98;;;10.00;;
6163;SDS011;3114;48.362;10.994;2022-08-18T11:08:47;10.40;;;9.48;;
6163;SDS011;3114;48.362;10.994;2022-08-18T11:11:19;11.07;;;9.55;;
6163;SDS011;3114;48.362;10.994;2022-08-18T11:13:51;9.98;;;8.80;;
6163;SDS011;3114;48.362;10.994;2022-08-18T11:16:34;9.02;;;8.13;;
6163;SDS011;3114;48.362;10.994;2022-08-18T11:19:09;9.05;;;8.15;;
6163;SDS011;3114;48.362;10.994;2022-08-18T11:21:40;9.35;;;8.45;;
6163;SDS011;3114;48.362;10.994;2022-08-18T11:24:13;9.85;;;7.30;;
6163;SDS011;3114;48.362;10.994;2022-08-18T11:26:43;11.05;;;9.73;;
6163;SDS011;3114;48.362;10.994;2022-08-18T11:29:18;9.98;;;9.02;;
6163;SDS011;3114;48.362;10.994;2022-08-18T11:31:48;7.95;;;6.97;;
6163;SDS011;3114;48.362;10.994;2022-08-18T11:34:17;8.73;;;6.68;;
6163;SDS011;3114;48.362;10.994;2022-08-18T11:36:55;6.65;;;6.00;;
6163;SDS011;3114;48.362;10.994;2022-08-18T11:39:24;8.10;;;6.88;;
6163;SDS011;3114;48.362;10.994;2022-08-18T11:41:52;8.70;;;7.57;;
6163;SDS011;3114;48.362;10.994;2022-08-18T11:44:21;8.60;;;7.70;;
6163;SDS011;3114;48.362;10.994;2022-08-18T11:46:53;8.32;;;7.45;;
6163;SDS011;3114;48.362;10.994;2022-08-18T11:49:25;7.28;;;6.20;;
6163;SDS011;3114;48.362;10.994;2022-08-18T11:51:58;7.22;;;5.90;;
6163;SDS011;3114;48.362;10.994;2022-08-18T11:54:37;7.97;;;5.47;;
6163;SDS011;3114;48.362;10.994;2022-08-18T12:03:19;7.18;;;6.47;;
6163;SDS011;3114;48.362;10.994;2022-08-18T12:05:53;6.35;;;5.72;;
6163;SDS011;3114;48.362;10.994;2022-08-18T12:08:27;6.88;;;5.53;;
6163;SDS011;3114;48.362;10.994;2022-08-18T12:11:12;8.25;;;5.70;;
6163;SDS011;3114;48.362;10.994;2022-08-18T12:13:41;7.88;;;5.50;;
6163;SDS011;3114;48.362;10.994;2022-08-18T12:16:12;7.15;;;5.45;;
6163;SDS011;3114;48.362;10.994;2022-08-18T12:18:39;6.40;;;5.22;;
6163;SDS011;3114;48.362;10.994;2022-08-18T12:21:07;6.90;;;5.18;;
6163;SDS011;3114;48.362;10.994;2022-08-18T12:23:35;7.07;;;6.40;;
6163;SDS011;3114;48.362;10.994;2022-08-18T12:26:07;6.85;;;5.22;;
6163;SDS011;3114;48.362;10.994;2022-08-18T12:28:34;8.52;;;5.13;;
6163;SDS011;3114;48.362;10.994;2022-08-18T12:31:01;6.15;;;5.55;;
6163;SDS011;3114;48.362;10.994;2022-08-18T12:33:28;7.20;;;6.40;;
6163;SDS011;3114;48.362;10.994;2022-08-18T12:35:55;6.57;;;5.88;;
6163;SDS011;3114;48.362;10.994;2022-08-18T12:38:22;6.20;;;5.60;;
6163;SDS011;3114;48.362;10.994;2022-08-18T12:40:49;6.30;;;5.53;;
6163;SDS011;3114;48.362;10.994;2022-08-18T12:43:18;6.75;;;5.55;;
6163;SDS011;3114;48.362;10.994;2022-08-18T12:45:48;7.05;;;6.10;;
6163;SDS011;3114;48.362;10.994;2022-08-18T12:48:15;6.38;;;5.72;;
6163;SDS011;3114;48.362;10.994;2022-08-18T12:50:42;6.90;;;5.90;;
6163;SDS011;3114;48.362;10.994;2022-08-18T12:53:09;5.95;;;5.32;;
6163;SDS011;3114;48.362;10.994;2022-08-18T12:55:38;5.35;;;4.85;;
6163;SDS011;3114;48.362;10.994;2022-08-18T12:58:09;5.05;;;4.55;;
6163;SDS011;3114;48.362;10.994;2022-08-18T13:00:37;7.50;;;5.55;;
6163;SDS011;3114;48.362;10.994;2022-08-18T13:03:05;6.95;;;6.25;;
6163;SDS011;3114;48.362;10.994;2022-08-18T13:05:33;7.65;;;6.72;;
6163;SDS011;3114;48.362;10.994;2022-08-18T13:08:01;6.60;;;5.93;;
6163;SDS011;3114;48.362;10.994;2022-08-18T13:10:30;6.75;;;5.95;;
6163;SDS011;3114;48.362;10.994;2022-08-18T13:12:57;6.53;;;5.93;;
6163;SDS011;3114;48.362;10.994;2022-08-18T13:15:24;5.88;;;5.28;;
6163;SDS011;3114;48.362;10.994;2022-08-18T13:17:53;5.47;;;4.93;;
6163;SDS011;3114;48.362;10.994;2022-08-18T13:20:20;6.22;;;5.43;;
6163;SDS011;3114;48.362;10.994;2022-08-18T13:22:47;6.55;;;5.82;;
6163;SDS011;3114;48.362;10.994;2022-08-18T13:25:16;6.45;;;5.85;;
6163;SDS011;3114;48.362;10.994;2022-08-18T13:27:43;7.80;;;7.10;;
6163;SDS011;3114;48.362;10.994;2022-08-18T13:30:11;7.47;;;6.78;;
6163;SDS011;3114;48.362;10.994;2022-08-18T13:32:40;7.43;;;6.65;;
6163;SDS011;3114;48.362;10.994;2022-08-18T13:35:09;7.20;;;6.60;;
6163;SDS011;3114;48.362;10.994;2022-08-18T13:37:36;7.88;;;6.45;;
6163;SDS011;3114;48.362;10.994;2022-08-18T13:40:05;7.03;;;5.97;;
6163;SDS011;3114;48.362;10.994;2022-08-18T13:42:39;6.05;;;5.55;;
6163;SDS011;3114;48.362;10.994;2022-08-18T13:45:07;7.15;;;5.50;;
6163;SDS011;3114;48.362;10.994;2022-08-18T13:47:37;6.13;;;5.50;;
6163;SDS011;3114;48.362;10.994;2022-08-18T13:50:05;6.93;;;6.07;;
6163;SDS011;3114;48.362;10.994;2022-08-18T13:52:33;8.35;;;7.57;;
6163;SDS011;3114;48.362;10.994;2022-08-18T13:55:01;9.10;;;6.45;;
6163;SDS011;3114;48.362;10.994;2022-08-18T13:57:29;7.40;;;6.55;;
6163;SDS011;3114;48.362;10.994;2022-08-18T13:59:57;7.03;;;6.32;;
6163;SDS011;3114;48.362;10.994;2022-08-18T14:02:24;7.40;;;5.75;;
6163;SDS011;3114;48.362;10.994;2022-08-18T14:04:50;6.07;;;5.47;;
6163;SDS011;3114;48.362;10.994;2022-08-18T14:07:20;7.30;;;5.90;;
6163;SDS011;3114;48.362;10.994;2022-08-18T14:09:48;6.03;;;5.43;;
6163;SDS011;3114;48.362;10.994;2022-08-18T14:12:16;7.68;;;5.90;;
6163;SDS011;3114;48.362;10.994;2022-08-18T14:14:45;6.13;;;5.53;;
6163;SDS011;3114;48.362;10.994;2022-08-18T14:17:12;7.13;;;5.78;;
6163;SDS011;3114;48.362;10.994;2022-08-18T14:19:39;6.68;;;5.97;;
6163;SDS011;3114;48.362;10.994;2022-08-18T14:22:23;7.05;;;6.35;;
6163;SDS011;3114;48.362;10.994;2022-08-18T14:25:10;7.75;;;4.95;;
6163;SDS011;3114;48.362;10.994;2022-08-18T14:27:55;6.10;;;5.50;;
6163;SDS011;3114;48.362;10.994;2022-08-18T14:30:23;5.10;;;4.70;;
6163;SDS011;3114;48.362;10.994;2022-08-18T14:32:50;6.68;;;4.80;;
6163;SDS011;3114;48.362;10.994;2022-08-18T14:35:18;7.35;;;5.70;;
6163;SDS011;3114;48.362;10.994;2022-08-18T14:37:46;6.82;;;5.75;;
6163;SDS011;3114;48.362;10.994;2022-08-18T14:40:15;6.43;;;5.28;;
6163;SDS011;3114;48.362;10.994;2022-08-18T14:42:44;7.20;;;5.47;;
6163;SDS011;3114;48.362;10.994;2022-08-18T14:45:11;5.28;;;4.78;;
6163;SDS011;3114;48.362;10.994;2022-08-18T14:47:45;6.38;;;4.80;;
6163;SDS011;3114;48.362;10.994;2022-08-18T14:50:13;5.70;;;5.13;;
6163;SDS011;3114;48.362;10.994;2022-08-18T14:52:40;8.43;;;5.65;;
6163;SDS011;3114;48.362;10.994;2022-08-18T14:55:09;5.55;;;5.05;;
6163;SDS011;3114;48.362;10.994;2022-08-18T14:57:38;5.97;;;5.07;;
6163;SDS011;3114;48.362;10.994;2022-08-18T15:00:05;6.25;;;5.65;;
6163;SDS011;3114;48.362;10.994;2022-08-18T15:02:36;7.32;;;5.80;;
6163;SDS011;3114;48.362;10.994;2022-08-18T15:05:06;6.40;;;5.78;;
6163;SDS011;3114;48.362;10.994;2022-08-18T15:07:34;6.82;;;6.13;;
6163;SDS011;3114;48.362;10.994;2022-08-18T15:10:14;6.00;;;5.53;;
6163;SDS011;3114;48.362;10.994;2022-08-18T15:12:42;6.00;;;5.50;;
6163;SDS011;3114;48.362;10.994;2022-08-18T15:15:10;10.15;;;5.65;;
6163;SDS011;3114;48.362;10.994;2022-08-18T15:17:38;7.50;;;5.10;;
6163;SDS011;3114;48.362;10.994;2022-08-18T15:20:06;6.75;;;5.50;;
6163;SDS011;3114;48.362;10.994;2022-08-18T15:22:38;7.00;;;5.60;;
6163;SDS011;3114;48.362;10.994;2022-08-18T15:25:23;6.05;;;5.10;;
6163;SDS011;3114;48.362;10.994;2022-08-18T15:28:16;7.18;;;5.28;;
6163;SDS011;3114;48.362;10.994;2022-08-18T15:30:47;6.57;;;5.28;;
6163;SDS011;3114;48.362;10.994;2022-08-18T15:33:20;6.93;;;5.13;;
6163;SDS011;3114;48.362;10.994;2022-08-18T15:35:48;5.90;;;5.40;;
6163;SDS011;3114;48.362;10.994;2022-08-18T15:38:18;5.88;;;5.15;;
6163;SDS011;3114;48.362;10.994;2022-08-18T15:40:48;6.18;;;5.28;;
6163;SDS011;3114;48.362;10.994;2022-08-18T15:43:18;6.78;;;5.60;;
6163;SDS011;3114;48.362;10.994;2022-08-18T15:45:45;5.60;;;5.10;;
6163;SDS011;3114;48.362;10.994;2022-08-18T15:48:13;6.65;;;5.32;;
6163;SDS011;3114;48.362;10.994;2022-08-18T15:50:40;8.65;;;5.70;;
6163;SDS011;3114;48.362;10.994;2022-08-18T15:53:10;6.57;;;5.88;;
6163;SDS011;3114;48.362;10.994;2022-08-18T15:55:38;6.93;;;5.72;;
6163;SDS011;3114;48.362;10.994;2022-08-18T15:58:06;6.07;;;5.47;;
6163;SDS011;3114;48.362;10.994;2022-08-18T16:00:35;6.43;;;5.88;;
6163;SDS011;3114;48.362;10.994;2022-08-18T16:03:08;8.45;;;5.90;;